Fowbelsburg, Maryland
Current Conditions -  °F | °C
As of 11:30 AM on Friday 19 Dec 2014 (Local Time) from KDMW Reporting Station
Overcast Overcast  
Wind Chill: 28°   Ceiling: 3000
Heat Index: 36°   Visibility: 10mi
Dew Point: 23°   Wind: 10mph
Humidity: 60%   Direction: 310°NW
Pressure: 30.11"   Gusts: NA
Location:  39.5707°N, 76.8072°W
Report Text: KDMW 191630Z AUTO 31009KT 270V330 10SM OVC030 02/M05 A3011 RMK AO2
Loading
Personal Weather Stations






























Interactive Weather Map New forecast layout! Learn more

10-Day Weather Forecast

Advertisements
Track Severe Weather on mobile